map of KTIF home
KTIF - Airport
Location
City:  Thedford, Nebraska, United States
Name:Thomas County Airport
ICAO:KTIF
FAA LID:TIF

Details
Type:Airport (Airfield)
Use:Public/Civil
Latitude:4157'46"N (41.962708)
Longitude:10034'13"W (-100.570305)
Datum:WGS 1984
Elevation:2925 ft (892 m)
Variation:5.76E (WMM2015 magnetic declination)
-0.10 annual change
Runways:1
Longest:4400 × 60 ft (1341 × 18.5 m), paved

Time
Time Zone:UTC-6 (DST-5)
Local Time:

Weather
METAR:KTIF 120955Z AUTO 28006KT 10SM CLR M05/M06 A3033 RMK AO2 T10491061

Related Locations
Nearby:
Farthest:RRG: 10638 mi / 17120 km
Plaine Corail [Sir Gatan Duval Airport (Plaine Corail Airport)], Rodrigues Island, MU

Find:

   beyond  
but within

Other Information
Maps:
NOTAMs:
Links:
Sources:

  
flag of United States
flag of Nebraska
  

Sectional Chart

Flight Planning
at skyvector.com

Satellite Image

Google Maps Satellite view

 

Copyright © 2004-2017 Karl L. Swartz. All rights reserved.
The Great Circle Mapper name and logo are trademarks of the Great Circle Mapper.
All other trademarks mentioned herein belong to their respective owners.
Please see credits for attibutions and further copyright information.

  Follow gcmap on Facebook Follow gcmap on Twitter Follow gcmap on Google+ GCmap on LinkedIn

hCard Microformat

Geo Microformat